Time;durP1;ratioP1;P1;durP2;ratioP2;P2;SDS_P1;SDS_P2;PMS_P1;PMS_P2;Temp;Humidity;BMP_temperature;BMP_pressure;BME280_temperature;BME280_humidity;BME280_pressure;Samples;Min_cycle;Max_cycle;Signal;HPM_P1;HPM_P2
2022/01/23 00:04:34;;;;;;;82.95;70.72;;;19.40;37.10;;;;;;4704185;55;21502;-37
2022/01/23 00:09:35;;;;;;;80.75;70.35;;;19.40;37.10;;;;;;4739957;55;21031;-38
2022/01/23 00:19:57;;;;;;;78.32;66.93;;;19.40;37.10;;;;;;4700658;55;21608;-37
2022/01/23 00:30:29;;;;;;;79.20;68.22;;;19.40;37.00;;;;;;4700593;59;21568;-30
2022/01/23 00:35:31;;;;;;;81.90;70.12;;;19.40;37.00;;;;;;4723910;55;21489;-36
2022/01/23 00:40:34;;;;;;;78.97;68.37;;;19.40;37.00;;;;;;4734513;55;21060;-39
2022/01/23 00:45:42;;;;;;;79.65;68.65;;;19.40;37.00;;;;;;4700250;59;21019;-37
2022/01/23 00:50:45;;;;;;;78.87;69.18;;;19.40;36.90;;;;;;4749254;55;21496;-37
2022/01/23 00:55:47;;;;;;;81.20;69.82;;;19.40;36.90;;;;;;4700752;57;21150;-34
2022/01/23 01:00:47;;;;;;;77.15;66.68;;;19.30;36.80;;;;;;4738050;55;21093;-36
2022/01/23 01:05:48;;;;;;;80.55;66.90;;;19.40;36.80;;;;;;4711818;55;21513;-35
2022/01/23 01:11:01;;;;;;;80.87;68.47;;;19.30;36.80;;;;;;4713613;55;21007;-38
2022/01/23 01:16:36;;;;;;;84.22;69.93;;;19.30;36.70;;;;;;4713225;55;22227;-36
2022/01/23 01:32:27;;;;;;;80.07;67.07;;;19.30;36.70;;;;;;4700534;59;21524;-33
2022/01/23 01:37:31;;;;;;;80.15;66.18;;;19.30;36.70;;;;;;4725241;55;21493;-34
2022/01/23 01:42:32;;;;;;;78.97;67.40;;;19.30;36.60;;;;;;4716865;55;21522;-35
2022/01/23 01:47:33;;;;;;;78.40;61.60;;;19.30;36.60;;;;;;4700248;59;21035;-35
2022/01/23 01:52:34;;;;;;;80.65;66.90;;;19.30;36.60;;;;;;4712198;55;21173;-33
2022/01/23 01:57:40;;;;;;;82.90;69.35;;;19.30;36.60;;;;;;4711440;55;21562;-35
2022/01/23 02:10:53;;;;;;;79.68;65.32;;;19.30;36.50;;;;;;4709393;55;21094;-36
2022/01/23 02:53:31;;;;;;;76.10;63.25;;;19.30;36.30;;;;;;4700252;55;21234;-34
2022/01/23 02:58:37;;;;;;;74.90;61.50;;;19.30;36.20;;;;;;4716805;55;21902;-36
2022/01/23 03:03:43;;;;;;;76.60;61.17;;;19.30;36.20;;;;;;4710597;55;21485;-29
2022/01/23 03:09:09;;;;;;;76.30;63.58;;;19.30;36.20;;;;;;4712540;55;21501;-36
2022/01/23 03:33:02;;;;;;;75.03;60.15;;;19.30;36.10;;;;;;4757188;55;21016;-34
2022/01/23 03:38:02;;;;;;;72.70;59.25;;;19.20;36.00;;;;;;4702309;55;21051;-37
2022/01/23 03:43:10;;;;;;;72.37;58.97;;;19.20;35.60;;;;;;4704666;55;21533;-37
2022/01/23 03:53:54;;;;;;;69.10;58.60;;;19.20;35.90;;;;;;4701856;55;21577;-43
2022/01/23 03:58:55;;;;;;;71.65;60.17;;;19.20;35.90;;;;;;4727197;55;21056;-37
2022/01/23 04:04:01;;;;;;;73.35;59.00;;;19.20;35.90;;;;;;4700601;59;21489;-37
2022/01/23 04:09:02;;;;;;;71.47;57.13;;;19.20;36.50;;;;;;4721022;55;21023;-30
2022/01/23 04:14:07;;;;;;;67.65;53.63;;;19.20;35.80;;;;;;4754191;55;21019;-33
2022/01/23 04:19:31;;;;;;;68.35;55.40;;;19.20;35.80;;;;;;4725718;54;21601;-31
2022/01/23 05:04:15;;;;;;;63.20;51.58;;;19.20;35.50;;;;;;4724372;55;22063;-37
2022/01/23 05:09:16;;;;;;;61.85;50.50;;;19.20;35.50;;;;;;4734034;55;21626;-37
2022/01/23 05:14:27;;;;;;;63.67;52.15;;;19.20;35.50;;;;;;4700484;59;21107;-33
2022/01/23 05:19:28;;;;;;;59.72;51.03;;;19.20;35.40;;;;;;4715748;55;21585;-36
2022/01/23 05:24:35;;;;;;;63.13;50.28;;;19.20;35.40;;;;;;4713958;55;21086;-34
2022/01/23 05:29:37;;;;;;;61.42;48.55;;;19.10;35.30;;;;;;4717283;55;21477;-32
2022/01/23 05:34:39;;;;;;;59.33;50.10;;;19.10;35.30;;;;;;4732131;55;21015;-37
2022/01/23 05:39:40;;;;;;;57.00;47.75;;;19.10;35.30;;;;;;4718079;55;21424;-38
2022/01/23 05:44:42;;;;;;;57.72;47.33;;;19.10;35.20;;;;;;4705734;55;21138;-29
2022/01/23 05:49:43;;;;;;;61.00;49.20;;;19.10;35.20;;;;;;4717946;55;21103;-36
2022/01/23 05:54:44;;;;;;;58.15;48.15;;;19.10;35.20;;;;;;4808335;55;21067;-35
2022/01/23 05:59:45;;;;;;;58.25;47.40;;;19.10;35.20;;;;;;4715056;55;21632;-37
2022/01/23 06:04:46;;;;;;;58.13;48.28;;;19.10;35.10;;;;;;4735122;54;21088;-31
2022/01/23 06:09:46;;;;;;;56.08;45.55;;;19.10;35.20;;;;;;4701625;59;21604;-34
2022/01/23 06:14:47;;;;;;;57.80;48.42;;;19.10;35.10;;;;;;4700147;59;21213;-37
2022/01/23 06:19:48;;;;;;;58.65;47.00;;;19.10;35.10;;;;;;4701520;55;21068;-33
2022/01/23 06:24:50;;;;;;;56.33;46.72;;;19.10;35.00;;;;;;4716395;55;21902;-34
2022/01/23 06:29:51;;;;;;;57.47;47.25;;;19.10;35.00;;;;;;4703682;55;21059;-34
2022/01/23 06:34:52;;;;;;;52.55;43.97;;;19.10;35.00;;;;;;4730106;55;21114;-33
2022/01/23 06:39:53;;;;;;;53.97;43.90;;;19.10;34.90;;;;;;4700375;59;21095;-37
2022/01/23 06:44:53;;;;;;;56.53;46.05;;;19.10;34.80;;;;;;4700209;59;21841;-36
2022/01/23 06:49:54;;;;;;;56.03;46.55;;;19.10;34.80;;;;;;4716617;55;21015;-36
2022/01/23 06:54:55;;;;;;;54.50;45.40;;;19.10;34.80;;;;;;4701358;59;21517;-34
2022/01/23 06:59:56;;;;;;;51.47;43.10;;;19.10;34.80;;;;;;4715662;55;21027;-35
2022/01/23 07:04:57;;;;;;;53.58;44.13;;;19.10;34.80;;;;;;4702219;55;21166;-36
2022/01/23 07:09:58;;;;;;;50.42;42.03;;;19.10;34.80;;;;;;4725490;55;21126;-35
2022/01/23 07:14:59;;;;;;;54.55;45.05;;;19.10;34.80;;;;;;4700433;59;21031;-35
2022/01/23 07:19:59;;;;;;;52.70;44.10;;;19.00;34.80;;;;;;4719099;55;21044;-29
2022/01/23 07:25:02;;;;;;;51.25;42.72;;;19.00;34.70;;;;;;4721556;55;21502;-34
2022/01/23 07:30:20;;;;;;;50.20;41.92;;;19.00;34.70;;;;;;4767341;55;21517;-40
2022/01/23 07:35:21;;;;;;;50.53;41.78;;;19.00;34.70;;;;;;4712795;55;21461;-35
2022/01/23 07:40:22;;;;;;;51.63;42.33;;;19.00;34.70;;;;;;4703373;55;20988;-30
2022/01/23 07:45:23;;;;;;;51.65;43.33;;;19.00;34.60;;;;;;4700254;56;21059;-36
2022/01/23 07:50:24;;;;;;;53.33;44.65;;;19.00;34.60;;;;;;4726406;55;21546;-34
2022/01/23 07:55:25;;;;;;;53.22;43.58;;;19.00;34.60;;;;;;4700628;59;21501;-34
2022/01/23 08:00:26;;;;;;;51.03;42.00;;;19.00;34.60;;;;;;4740355;55;21071;-37
2022/01/23 08:05:27;;;;;;;52.30;43.63;;;19.00;34.60;;;;;;4718963;55;21006;-36
2022/01/23 08:10:28;;;;;;;53.05;44.38;;;19.00;34.60;;;;;;4704427;55;21007;-27
2022/01/23 08:15:30;;;;;;;53.97;45.47;;;19.00;34.60;;;;;;4747623;55;21461;-37
2022/01/23 08:20:32;;;;;;;54.15;45.55;;;19.00;34.40;;;;;;4699872;59;21044;-32
2022/01/23 08:25:33;;;;;;;54.75;45.88;;;19.00;35.10;;;;;;4701221;55;21485;-35
2022/01/23 08:30:34;;;;;;;56.95;46.25;;;19.00;34.40;;;;;;4718599;55;21023;-35
2022/01/23 08:35:35;;;;;;;56.90;45.65;;;19.00;34.50;;;;;;4709360;55;21011;-38
2022/01/23 08:40:48;;;;;;;58.35;45.85;;;19.00;34.40;;;;;;4736321;55;21517;-38
2022/01/23 08:45:50;;;;;;;59.53;49.25;;;19.00;34.40;;;;;;4710305;55;21537;-42
2022/01/23 08:50:51;;;;;;;59.30;48.42;;;19.00;34.40;;;;;;4716967;55;21950;-33
2022/01/23 08:55:52;;;;;;;56.33;46.53;;;19.00;34.30;;;;;;4700435;59;21048;-30
2022/01/23 09:00:53;;;;;;;60.85;51.00;;;19.00;34.50;;;;;;4747082;55;21039;-35
2022/01/23 09:05:54;;;;;;;63.15;52.40;;;19.00;34.40;;;;;;4716723;55;22345;-34
2022/01/23 09:10:58;;;;;;;61.42;47.80;;;19.00;34.40;;;;;;4718462;55;22331;-33
2022/01/23 09:16:00;;;;;;;65.57;53.55;;;19.00;34.40;;;;;;4700773;55;21485;-34
2022/01/23 09:21:02;;;;;;;71.68;56.20;;;19.00;34.40;;;;;;4708717;55;21028;-35
2022/01/23 09:26:14;;;;;;;71.82;55.67;;;19.00;34.40;;;;;;4708055;55;21091;-32
2022/01/23 09:31:25;;;;;;;71.10;57.05;;;19.00;34.50;;;;;;4720518;55;22311;-38
2022/01/23 09:36:28;;;;;;;68.60;55.35;;;19.00;34.50;;;;;;4703552;55;21639;-34
2022/01/23 09:41:30;;;;;;;76.35;62.88;;;19.00;34.50;;;;;;4715097;55;21047;-36
2022/01/23 09:46:31;;;;;;;80.20;64.32;;;19.00;34.50;;;;;;4700765;59;21019;-32
2022/01/23 09:51:40;;;;;;;81.20;66.57;;;19.00;34.40;;;;;;4700832;59;21015;-34
2022/01/23 09:56:43;;;;;;;83.65;66.97;;;19.00;34.50;;;;;;4723305;55;21572;-36
2022/01/23 10:01:48;;;;;;;88.93;70.07;;;19.00;34.50;;;;;;4700871;59;21513;-36
2022/01/23 10:06:49;;;;;;;86.28;69.60;;;19.00;34.50;;;;;;4699642;59;21485;-35
2022/01/23 10:11:50;;;;;;;92.72;71.37;;;19.00;34.50;;;;;;4700155;59;21048;-35
2022/01/23 10:16:51;;;;;;;93.05;72.53;;;19.00;34.50;;;;;;4704420;55;21554;-33
2022/01/23 10:21:53;;;;;;;98.10;78.35;;;19.00;34.60;;;;;;4722867;54;21106;-36
2022/01/23 10:26:57;;;;;;;97.75;74.03;;;19.00;34.60;;;;;;4701360;55;21154;-37
2022/01/23 10:32:25;;;;;;;101.97;78.65;;;19.00;34.70;;;;;;4700656;59;21194;-33
2022/01/23 10:37:39;;;;;;;104.97;83.30;;;19.00;34.70;;;;;;4704074;55;21498;-36
2022/01/23 10:43:06;;;;;;;102.03;77.65;;;19.00;34.70;;;;;;4709760;55;21501;-32
2022/01/23 10:48:35;;;;;;;104.57;83.93;;;19.00;34.70;;;;;;4708899;55;21561;-33
2022/01/23 10:54:06;;;;;;;110.65;87.57;;;19.00;34.70;;;;;;4700662;57;21158;-32
2022/01/23 10:59:12;;;;;;;110.85;89.32;;;19.00;34.70;;;;;;4702026;55;21485;-39
2022/01/23 11:04:14;;;;;;;111.55;88.18;;;19.00;34.80;;;;;;4742587;54;21022;-31
2022/01/23 11:09:14;;;;;;;117.78;94.70;;;19.00;34.80;;;;;;4718839;55;21027;-30
2022/01/23 11:54:11;;;;;;;135.18;109.28;;;19.00;35.10;;;;;;4742845;58;21085;-31
2022/01/23 11:59:31;;;;;;;132.05;106.47;;;19.00;35.20;;;;;;4746462;55;21109;-33
2022/01/23 12:04:34;;;;;;;141.50;111.97;;;19.00;35.80;;;;;;4766718;55;21475;-33
2022/01/23 12:09:35;;;;;;;139.68;112.30;;;19.00;35.20;;;;;;4747151;55;21049;-38
2022/01/23 12:20:33;;;;;;;140.55;113.07;;;19.00;35.30;;;;;;4755327;55;21034;-35
2022/01/23 12:25:49;;;;;;;150.32;120.90;;;19.00;35.30;;;;;;4800021;55;21479;-36
2022/01/23 12:30:52;;;;;;;153.65;122.32;;;19.00;35.40;;;;;;4783228;55;21030;-41
2022/01/23 12:36:05;;;;;;;153.23;121.65;;;19.00;35.40;;;;;;4764396;55;21080;-37
2022/01/23 12:43:16;;;;;;;152.52;120.85;;;19.00;36.10;;;;;;4777046;55;21638;-28
2022/01/23 12:50:55;;;;;;;150.43;115.88;;;19.00;35.50;;;;;;4743095;55;21825;-37
2022/01/23 12:56:12;;;;;;;156.60;124.18;;;18.90;35.50;;;;;;4738191;59;21066;-40
2022/01/23 13:01:18;;;;;;;160.48;127.87;;;18.90;35.60;;;;;;4759308;55;21045;-34
2022/01/23 13:07:16;;;;;;;160.43;128.17;;;19.00;35.60;;;;;;4738184;55;20982;-37
2022/01/23 13:13:36;;;;;;;157.48;128.07;;;19.00;35.70;;;;;;4738129;59;21602;-34
2022/01/23 13:18:48;;;;;;;159.43;129.45;;;19.00;35.70;;;;;;4761090;55;21538;-33
2022/01/23 13:35:11;;;;;;;161.65;130.98;;;19.00;35.90;;;;;;4749131;55;21131;-35
2022/01/23 13:40:23;;;;;;;161.02;129.70;;;18.90;35.90;;;;;;4757286;55;21483;-39
2022/01/23 13:57:52;;;;;;;158.65;126.68;;;19.00;36.00;;;;;;4737892;59;21483;-38
2022/01/23 14:02:54;;;;;;;154.68;124.00;;;19.00;36.00;;;;;;4747132;55;21022;-36
2022/01/23 14:08:03;;;;;;;155.85;129.32;;;18.90;36.00;;;;;;4738033;59;21614;-37
2022/01/23 14:13:19;;;;;;;158.85;128.20;;;18.90;36.10;;;;;;4737946;59;21570;-36
2022/01/23 14:18:24;;;;;;;153.02;122.40;;;18.90;36.10;;;;;;4738411;59;21547;-36
2022/01/23 14:23:27;;;;;;;161.75;130.65;;;18.90;36.10;;;;;;4769705;55;21644;-34
2022/01/23 14:28:38;;;;;;;151.32;124.47;;;18.90;36.80;;;;;;4757344;55;21038;-36
2022/01/23 14:33:39;;;;;;;164.07;131.52;;;18.90;36.20;;;;;;4755619;55;21061;-31
2022/01/23 14:38:56;;;;;;;160.73;129.80;;;18.90;36.20;;;;;;4759575;55;21464;-34
2022/01/23 14:43:58;;;;;;;152.93;129.25;;;18.90;36.20;;;;;;4740918;55;21070;-29
2022/01/23 14:49:09;;;;;;;152.80;125.97;;;18.90;36.20;;;;;;4775208;55;20998;-37
2022/01/23 14:54:10;;;;;;;151.90;123.32;;;18.90;36.30;;;;;;4750196;55;21543;-35
2022/01/23 14:59:12;;;;;;;153.20;124.93;;;18.90;36.30;;;;;;4741951;55;21014;-35
2022/01/23 15:04:15;;;;;;;154.90;129.18;;;18.90;36.30;;;;;;4767090;55;21010;-34
2022/01/23 15:09:17;;;;;;;156.90;128.60;;;18.90;36.40;;;;;;4753588;55;21045;-37
2022/01/23 15:14:18;;;;;;;158.30;127.93;;;18.90;36.50;;;;;;4738224;59;21034;-32
2022/01/23 15:19:19;;;;;;;151.85;125.22;;;18.90;36.50;;;;;;4815391;55;21090;-34
2022/01/23 15:24:20;;;;;;;149.60;121.72;;;18.90;36.40;;;;;;4756271;55;21010;-36
2022/01/23 15:29:21;;;;;;;147.30;119.97;;;18.90;36.50;;;;;;4745376;55;21070;-34
2022/01/23 15:34:22;;;;;;;146.87;121.07;;;18.90;36.50;;;;;;4738150;59;21061;-27
2022/01/23 15:39:25;;;;;;;152.62;125.93;;;18.90;36.50;;;;;;4760484;55;20998;-40
2022/01/23 15:44:26;;;;;;;149.10;124.18;;;18.90;36.60;;;;;;4761365;55;21535;-31
2022/01/23 15:49:27;;;;;;;145.10;121.35;;;18.90;36.50;;;;;;4757819;55;21002;-34
2022/01/23 15:54:29;;;;;;;145.00;122.30;;;18.90;36.50;;;;;;4761235;55;21547;-33
2022/01/23 15:59:30;;;;;;;145.77;121.35;;;18.90;36.60;;;;;;4760855;55;22185;-37
2022/01/23 16:04:34;;;;;;;142.25;120.20;;;18.90;36.60;;;;;;4758737;55;21066;-28
2022/01/23 16:09:35;;;;;;;138.60;112.97;;;18.90;36.70;;;;;;4754547;55;21889;-27
2022/01/23 16:14:35;;;;;;;143.40;119.13;;;18.90;36.60;;;;;;4748820;55;21026;-36
2022/01/23 16:19:36;;;;;;;138.37;116.00;;;18.90;36.60;;;;;;4773050;55;21025;-36
2022/01/23 16:24:37;;;;;;;135.23;112.25;;;18.90;36.60;;;;;;4743176;55;22357;-34
2022/01/23 16:29:38;;;;;;;140.48;116.68;;;18.90;36.70;;;;;;4760554;55;21824;-36
2022/01/23 16:34:39;;;;;;;137.27;117.20;;;18.90;36.70;;;;;;4738563;59;21078;-37
2022/01/23 16:39:40;;;;;;;137.18;114.47;;;18.90;36.70;;;;;;4778213;55;21539;-33
2022/01/23 16:44:41;;;;;;;133.20;112.05;;;18.90;36.80;;;;;;4757779;55;21109;-38
2022/01/23 16:49:42;;;;;;;135.07;116.05;;;18.90;36.70;;;;;;4746550;55;21552;-34
2022/01/23 16:54:45;;;;;;;134.37;109.85;;;18.80;36.70;;;;;;4738604;55;21018;-35
2022/01/23 16:59:46;;;;;;;133.77;113.00;;;18.90;36.70;;;;;;4737857;59;21977;-31
2022/01/23 17:04:46;;;;;;;134.70;114.20;;;18.90;36.70;;;;;;4754596;55;21089;-38
2022/01/23 17:09:47;;;;;;;131.27;108.65;;;18.90;36.70;;;;;;4738101;56;22062;-34
2022/01/23 17:14:48;;;;;;;128.87;110.60;;;18.90;36.80;;;;;;4739839;55;21022;-37
2022/01/23 17:19:49;;;;;;;133.18;110.68;;;18.90;36.80;;;;;;4738380;56;21021;-37
2022/01/23 17:24:50;;;;;;;126.18;104.05;;;18.80;36.70;;;;;;4738435;55;21086;-31
2022/01/23 17:29:51;;;;;;;127.87;109.75;;;18.90;36.80;;;;;;4755620;55;21034;-36
2022/01/23 17:34:52;;;;;;;122.20;105.75;;;18.90;36.80;;;;;;4744327;55;21034;-29
2022/01/23 17:39:53;;;;;;;127.87;107.45;;;18.80;36.70;;;;;;4737611;59;21149;-30
2022/01/23 17:44:54;;;;;;;123.90;101.57;;;18.80;36.70;;;;;;4738078;59;21065;-35
2022/01/23 17:49:58;;;;;;;124.62;105.60;;;18.80;36.80;;;;;;4737891;59;20994;-35
2022/01/23 17:54:59;;;;;;;124.90;105.00;;;18.80;36.70;;;;;;4769177;55;21577;-32
2022/01/23 18:00:00;;;;;;;120.97;102.68;;;18.80;36.70;;;;;;4742531;55;21013;-36
2022/01/23 18:05:02;;;;;;;115.80;98.10;;;18.80;36.80;;;;;;4738323;59;21576;-36
2022/01/23 18:10:06;;;;;;;121.10;103.97;;;18.80;36.70;;;;;;4751664;55;21641;-31
2022/01/23 18:15:08;;;;;;;123.15;103.68;;;18.80;36.70;;;;;;4764760;55;20978;-35
2022/01/23 18:20:10;;;;;;;119.45;101.45;;;18.80;36.70;;;;;;4745611;55;21014;-36
2022/01/23 18:25:11;;;;;;;110.50;93.93;;;18.80;36.80;;;;;;4755174;55;21065;-31
2022/01/23 18:30:14;;;;;;;114.18;96.43;;;18.80;36.70;;;;;;4738452;55;21117;-38
2022/01/23 18:35:15;;;;;;;115.05;99.60;;;18.80;36.70;;;;;;4749297;55;21117;-32
2022/01/23 18:40:16;;;;;;;118.22;98.60;;;18.80;36.70;;;;;;4737166;59;21029;-33
2022/01/23 18:45:17;;;;;;;112.35;97.90;;;18.80;36.70;;;;;;4769399;55;21476;-29
2022/01/23 18:50:18;;;;;;;112.37;96.35;;;18.80;36.70;;;;;;4737483;59;21010;-37
2022/01/23 18:55:25;;;;;;;111.37;95.38;;;18.80;36.80;;;;;;4743663;55;20998;-37
2022/01/23 19:00:26;;;;;;;111.90;95.22;;;18.80;36.70;;;;;;4738068;59;21479;-31
2022/01/23 19:05:30;;;;;;;110.65;94.25;;;18.80;36.70;;;;;;4759460;55;21017;-30
2022/01/23 19:10:38;;;;;;;111.55;94.90;;;18.80;36.70;;;;;;4754338;55;21732;-34
2022/01/23 19:15:39;;;;;;;106.68;92.00;;;18.80;36.70;;;;;;4743078;55;21524;-34
2022/01/23 19:20:41;;;;;;;108.63;94.37;;;18.80;36.70;;;;;;4747608;55;21054;-37
2022/01/23 19:25:42;;;;;;;110.47;95.72;;;18.80;36.70;;;;;;4776859;55;21065;-38
2022/01/23 19:30:42;;;;;;;106.65;94.47;;;18.80;36.80;;;;;;4742400;55;21515;-34
2022/01/23 19:35:44;;;;;;;108.70;94.70;;;18.80;36.90;;;;;;4742739;55;21010;-38
2022/01/23 19:40:53;;;;;;;107.10;92.12;;;18.80;36.70;;;;;;4742114;55;21492;-35
2022/01/23 19:45:58;;;;;;;107.63;91.55;;;18.80;36.70;;;;;;4767455;55;22047;-33
2022/01/23 19:51:00;;;;;;;109.03;95.90;;;18.80;36.70;;;;;;4747540;55;21500;-36
2022/01/23 19:56:00;;;;;;;108.65;92.65;;;18.80;36.70;;;;;;4748300;55;21082;-34
2022/01/23 20:01:04;;;;;;;108.43;94.70;;;18.80;36.70;;;;;;4737500;59;21141;-37
2022/01/23 20:06:11;;;;;;;103.68;90.60;;;18.80;36.70;;;;;;4741590;55;21587;-33
2022/01/23 20:12:43;;;;;;;104.50;92.35;;;18.80;36.60;;;;;;4738733;59;21500;-36
2022/01/23 20:17:46;;;;;;;109.55;93.60;;;18.80;36.70;;;;;;4738079;55;21030;-38
2022/01/23 20:22:48;;;;;;;104.85;90.93;;;18.80;36.70;;;;;;4747712;55;21507;-36
2022/01/23 20:27:49;;;;;;;106.97;92.68;;;18.80;36.70;;;;;;4743492;55;20978;-34
2022/01/23 20:32:50;;;;;;;98.65;82.75;;;18.80;36.70;;;;;;4738101;59;20998;-36
2022/01/23 20:37:53;;;;;;;104.78;88.15;;;18.80;36.60;;;;;;4769746;55;21471;-37
2022/01/23 20:42:54;;;;;;;103.50;92.05;;;18.80;36.60;;;;;;4737970;55;21557;-36
2022/01/23 20:47:56;;;;;;;103.50;91.20;;;18.80;36.60;;;;;;4760595;55;20974;-33
2022/01/23 20:53:07;;;;;;;105.32;92.25;;;18.80;36.60;;;;;;4738056;59;21095;-34
2022/01/23 20:58:09;;;;;;;106.12;90.95;;;18.80;36.60;;;;;;4768675;55;21618;-33
2022/01/23 21:03:11;;;;;;;104.03;91.00;;;18.80;36.60;;;;;;4737083;59;21500;-36
2022/01/23 21:08:12;;;;;;;103.25;91.95;;;18.80;36.60;;;;;;4740089;55;21448;-31
2022/01/23 21:13:13;;;;;;;101.87;87.05;;;18.80;36.60;;;;;;4738150;59;21054;-34
2022/01/23 21:18:34;;;;;;;104.25;91.87;;;18.80;36.60;;;;;;4738131;59;21002;-37
2022/01/23 21:28:37;;;;;;;101.55;90.38;;;18.80;36.60;;;;;;4744659;55;21504;-28
2022/01/23 21:42:10;;;;;;;101.62;86.12;;;18.70;36.50;;;;;;4750789;55;21575;-42
2022/01/23 21:47:11;;;;;;;99.30;86.85;;;18.80;36.50;;;;;;4750479;55;21070;-35
2022/01/23 21:52:12;;;;;;;102.35;89.22;;;18.70;36.50;;;;;;4814810;55;21556;-35
2022/01/23 21:57:13;;;;;;;98.28;84.03;;;18.70;36.50;;;;;;4738379;59;21022;-33
2022/01/23 22:02:14;;;;;;;99.90;87.20;;;18.70;36.50;;;;;;4750206;55;21619;-37
2022/01/23 22:07:15;;;;;;;97.53;86.45;;;18.70;36.50;;;;;;4738000;59;21136;-35
2022/01/23 22:12:37;;;;;;;104.90;92.15;;;18.80;36.60;;;;;;4749545;55;21017;-36
2022/01/23 22:17:38;;;;;;;96.65;84.47;;;18.70;36.50;;;;;;4738132;55;21017;-31
2022/01/23 22:27:49;;;;;;;99.62;87.93;;;18.70;36.50;;;;;;4754810;55;22025;-37
2022/01/23 22:32:50;;;;;;;99.53;88.62;;;18.70;36.50;;;;;;4737766;59;21081;-35
2022/01/23 22:37:56;;;;;;;101.70;88.05;;;18.70;36.40;;;;;;4781856;55;21042;-36
2022/01/23 22:42:57;;;;;;;103.25;89.22;;;18.70;36.50;;;;;;4737200;59;21562;-33
2022/01/23 22:47:57;;;;;;;103.05;87.37;;;18.70;36.40;;;;;;4779924;55;20994;-30
2022/01/23 22:52:58;;;;;;;97.97;85.80;;;18.70;36.40;;;;;;4749040;55;21005;-35
2022/01/23 22:57:59;;;;;;;98.80;86.20;;;18.70;36.40;;;;;;4738160;59;21014;-38
2022/01/23 23:03:00;;;;;;;101.40;86.70;;;18.70;36.50;;;;;;4825515;55;21535;-35
2022/01/23 23:08:01;;;;;;;100.93;88.68;;;18.70;36.40;;;;;;4742707;55;21038;-35
2022/01/23 23:13:02;;;;;;;96.25;84.03;;;18.70;36.90;;;;;;4745884;55;21062;-37
2022/01/23 23:18:09;;;;;;;99.20;81.90;;;18.70;37.00;;;;;;4743759;55;21515;-35
2022/01/23 23:23:10;;;;;;;97.97;82.97;;;18.70;36.30;;;;;;4757858;55;21522;-32
2022/01/23 23:28:11;;;;;;;103.75;87.93;;;18.70;36.30;;;;;;4741159;55;21073;-38
2022/01/23 23:33:12;;;;;;;101.93;86.70;;;18.70;36.30;;;;;;4738132;59;21574;-31
2022/01/23 23:38:14;;;;;;;94.20;79.72;;;18.70;36.30;;;;;;4737893;59;21068;-36
2022/01/23 23:43:22;;;;;;;100.70;86.82;;;18.70;36.30;;;;;;4737267;59;21070;-32
2022/01/23 23:48:23;;;;;;;98.55;84.03;;;18.70;36.30;;;;;;4777047;55;21476;-34
2022/01/23 23:53:30;;;;;;;97.47;82.32;;;18.70;36.20;;;;;;4743262;55;21475;-35
2022/01/23 23:58:31;;;;;;;100.80;84.18;;;18.70;36.20;;;;;;4738104;55;21456;-32
